sensor_id;sensor_type;location;lat;lon;timestamp;temperature;humidity
40534;DHT22;26233;51.894;10.192;2023-10-09T00:00:32;16.00;42.30
40534;DHT22;26233;51.894;10.192;2023-10-09T00:03:16;16.10;42.20
40534;DHT22;26233;51.894;10.192;2023-10-09T00:05:44;16.10;42.40
40534;DHT22;26233;51.894;10.192;2023-10-09T00:08:12;16.10;42.40
40534;DHT22;26233;51.894;10.192;2023-10-09T00:10:44;16.10;42.50
40534;DHT22;26233;51.894;10.192;2023-10-09T00:13:20;16.10;42.50
40534;DHT22;26233;51.894;10.192;2023-10-09T00:15:53;16.20;42.70
40534;DHT22;26233;51.894;10.192;2023-10-09T00:18:25;16.20;42.70
40534;DHT22;26233;51.894;10.192;2023-10-09T00:20:55;16.20;42.70
40534;DHT22;26233;51.894;10.192;2023-10-09T00:23:26;16.30;42.80
40534;DHT22;26233;51.894;10.192;2023-10-09T00:25:56;16.30;42.90
40534;DHT22;26233;51.894;10.192;2023-10-09T00:28:38;16.30;43.50
40534;DHT22;26233;51.894;10.192;2023-10-09T00:31:10;16.40;43.10
40534;DHT22;26233;51.894;10.192;2023-10-09T00:33:41;16.40;43.10
40534;DHT22;26233;51.894;10.192;2023-10-09T00:36:08;16.40;43.20
40534;DHT22;26233;51.894;10.192;2023-10-09T00:38:36;16.50;43.20
40534;DHT22;26233;51.894;10.192;2023-10-09T00:41:10;16.40;43.20
40534;DHT22;26233;51.894;10.192;2023-10-09T00:43:39;16.50;43.30
40534;DHT22;26233;51.894;10.192;2023-10-09T00:46:11;16.50;43.50
40534;DHT22;26233;51.894;10.192;2023-10-09T00:48:50;16.50;43.50
40534;DHT22;26233;51.894;10.192;2023-10-09T00:51:19;16.50;43.60
40534;DHT22;26233;51.894;10.192;2023-10-09T00:53:51;16.50;43.70
40534;DHT22;26233;51.894;10.192;2023-10-09T00:56:22;16.50;43.70
40534;DHT22;26233;51.894;10.192;2023-10-09T00:59:06;16.50;43.80
40534;DHT22;26233;51.894;10.192;2023-10-09T01:01:41;16.50;43.90
40534;DHT22;26233;51.894;10.192;2023-10-09T01:04:21;16.60;44.00
40534;DHT22;26233;51.894;10.192;2023-10-09T01:06:49;16.60;44.00
40534;DHT22;26233;51.894;10.192;2023-10-09T01:09:30;16.60;44.20
40534;DHT22;26233;51.894;10.192;2023-10-09T01:12:03;16.60;44.20
40534;DHT22;26233;51.894;10.192;2023-10-09T01:14:32;16.60;44.20
40534;DHT22;26233;51.894;10.192;2023-10-09T01:17:02;16.70;44.30
40534;DHT22;26233;51.894;10.192;2023-10-09T01:19:33;16.70;44.30
40534;DHT22;26233;51.894;10.192;2023-10-09T01:22:00;16.70;44.30
40534;DHT22;26233;51.894;10.192;2023-10-09T01:24:31;16.70;44.30
40534;DHT22;26233;51.894;10.192;2023-10-09T01:27:04;16.80;44.50
40534;DHT22;26233;51.894;10.192;2023-10-09T01:29:38;16.80;44.50
40534;DHT22;26233;51.894;10.192;2023-10-09T01:32:08;16.80;44.40
40534;DHT22;26233;51.894;10.192;2023-10-09T01:34:44;16.80;44.50
40534;DHT22;26233;51.894;10.192;2023-10-09T01:37:15;16.80;44.50
40534;DHT22;26233;51.894;10.192;2023-10-09T01:39:45;16.80;44.50
40534;DHT22;26233;51.894;10.192;2023-10-09T01:42:14;16.80;44.60
40534;DHT22;26233;51.894;10.192;2023-10-09T01:44:50;16.80;44.70
40534;DHT22;26233;51.894;10.192;2023-10-09T01:47:18;16.80;45.30
40534;DHT22;26233;51.894;10.192;2023-10-09T01:49:47;16.80;44.70
40534;DHT22;26233;51.894;10.192;2023-10-09T01:52:19;16.90;44.90
40534;DHT22;26233;51.894;10.192;2023-10-09T01:54:51;16.90;44.90
40534;DHT22;26233;51.894;10.192;2023-10-09T01:57:20;16.90;45.00
40534;DHT22;26233;51.894;10.192;2023-10-09T01:59:49;16.90;45.00
40534;DHT22;26233;51.894;10.192;2023-10-09T02:02:19;16.90;45.00
40534;DHT22;26233;51.894;10.192;2023-10-09T02:04:58;16.90;44.90
40534;DHT22;26233;51.894;10.192;2023-10-09T02:07:36;17.00;45.00
40534;DHT22;26233;51.894;10.192;2023-10-09T02:10:19;17.00;45.00
40534;DHT22;26233;51.894;10.192;2023-10-09T02:12:58;16.90;45.00
40534;DHT22;26233;51.894;10.192;2023-10-09T02:15:32;17.00;45.10
40534;DHT22;26233;51.894;10.192;2023-10-09T02:18:17;17.00;45.10
40534;DHT22;26233;51.894;10.192;2023-10-09T02:20:52;17.00;45.10
40534;DHT22;26233;51.894;10.192;2023-10-09T02:23:26;17.00;45.10
40534;DHT22;26233;51.894;10.192;2023-10-09T02:26:06;17.00;45.10
40534;DHT22;26233;51.894;10.192;2023-10-09T02:28:35;17.00;45.10
40534;DHT22;26233;51.894;10.192;2023-10-09T02:31:10;17.00;45.20
40534;DHT22;26233;51.894;10.192;2023-10-09T02:33:40;17.10;45.40
40534;DHT22;26233;51.894;10.192;2023-10-09T02:36:07;17.00;45.20
40534;DHT22;26233;51.894;10.192;2023-10-09T02:38:35;17.10;45.30
40534;DHT22;26233;51.894;10.192;2023-10-09T02:41:09;17.00;45.30
40534;DHT22;26233;51.894;10.192;2023-10-09T02:43:54;17.00;46.00
40534;DHT22;26233;51.894;10.192;2023-10-09T02:46:23;17.10;45.50
40534;DHT22;26233;51.894;10.192;2023-10-09T02:48:57;17.00;45.50
40534;DHT22;26233;51.894;10.192;2023-10-09T02:51:25;17.00;45.50
40534;DHT22;26233;51.894;10.192;2023-10-09T02:54:00;17.00;45.60
40534;DHT22;26233;51.894;10.192;2023-10-09T02:56:44;17.00;46.10
40534;DHT22;26233;51.894;10.192;2023-10-09T02:59:13;17.00;45.80
40534;DHT22;26233;51.894;10.192;2023-10-09T03:01:41;17.00;45.80
40534;DHT22;26233;51.894;10.192;2023-10-09T03:04:08;16.90;45.80
40534;DHT22;26233;51.894;10.192;2023-10-09T03:06:40;17.00;46.10
40534;DHT22;26233;51.894;10.192;2023-10-09T03:09:15;17.00;46.10
40534;DHT22;26233;51.894;10.192;2023-10-09T03:11:54;16.90;46.10
40534;DHT22;26233;51.894;10.192;2023-10-09T03:14:28;16.90;46.20
40534;DHT22;26233;51.894;10.192;2023-10-09T03:16:56;17.00;46.30
40534;DHT22;26233;51.894;10.192;2023-10-09T03:19:25;16.90;46.30
40534;DHT22;26233;51.894;10.192;2023-10-09T03:21:55;17.00;46.50
40534;DHT22;26233;51.894;10.192;2023-10-09T03:24:23;17.00;46.50
40534;DHT22;26233;51.894;10.192;2023-10-09T03:26:50;17.00;46.70
40534;DHT22;26233;51.894;10.192;2023-10-09T03:29:19;17.00;46.60
40534;DHT22;26233;51.894;10.192;2023-10-09T03:31:46;17.00;46.70
40534;DHT22;26233;51.894;10.192;2023-10-09T03:34:16;17.00;46.60
40534;DHT22;26233;51.894;10.192;2023-10-09T03:36:43;17.10;46.80
40534;DHT22;26233;51.894;10.192;2023-10-09T03:39:11;17.10;46.80
40534;DHT22;26233;51.894;10.192;2023-10-09T03:41:51;17.10;46.80
40534;DHT22;26233;51.894;10.192;2023-10-09T03:44:21;17.20;46.90
40534;DHT22;26233;51.894;10.192;2023-10-09T03:46:48;17.10;46.80
40534;DHT22;26233;51.894;10.192;2023-10-09T03:49:16;17.10;46.80
40534;DHT22;26233;51.894;10.192;2023-10-09T03:51:49;17.10;46.80
40534;DHT22;26233;51.894;10.192;2023-10-09T03:54:16;17.10;46.90
40534;DHT22;26233;51.894;10.192;2023-10-09T03:56:46;17.10;46.90
40534;DHT22;26233;51.894;10.192;2023-10-09T03:59:15;17.10;46.90
40534;DHT22;26233;51.894;10.192;2023-10-09T04:01:46;17.20;47.00
40534;DHT22;26233;51.894;10.192;2023-10-09T04:04:17;17.20;47.10
40534;DHT22;26233;51.894;10.192;2023-10-09T04:06:48;17.20;47.10
40534;DHT22;26233;51.894;10.192;2023-10-09T04:09:17;17.20;47.00
40534;DHT22;26233;51.894;10.192;2023-10-09T04:11:55;17.20;47.00
40534;DHT22;26233;51.894;10.192;2023-10-09T04:14:45;17.20;47.00
40534;DHT22;26233;51.894;10.192;2023-10-09T04:17:23;17.10;47.00
40534;DHT22;26233;51.894;10.192;2023-10-09T04:20:00;17.10;47.10
40534;DHT22;26233;51.894;10.192;2023-10-09T04:22:57;17.10;47.00
40534;DHT22;26233;51.894;10.192;2023-10-09T04:25:30;17.10;47.00
40534;DHT22;26233;51.894;10.192;2023-10-09T04:28:08;17.10;47.70
40534;DHT22;26233;51.894;10.192;2023-10-09T04:30:44;17.10;47.10
40534;DHT22;26233;51.894;10.192;2023-10-09T04:33:20;17.10;47.10
40534;DHT22;26233;51.894;10.192;2023-10-09T04:36:09;17.10;47.10
40534;DHT22;26233;51.894;10.192;2023-10-09T04:38:42;17.10;47.10
40534;DHT22;26233;51.894;10.192;2023-10-09T04:41:21;17.10;47.10
40534;DHT22;26233;51.894;10.192;2023-10-09T04:43:57;17.10;47.20
40534;DHT22;26233;51.894;10.192;2023-10-09T04:46:41;17.10;47.20
40534;DHT22;26233;51.894;10.192;2023-10-09T04:49:11;17.10;47.20
40534;DHT22;26233;51.894;10.192;2023-10-09T04:51:53;17.10;47.20
40534;DHT22;26233;51.894;10.192;2023-10-09T04:54:30;17.20;47.30
40534;DHT22;26233;51.894;10.192;2023-10-09T04:57:05;17.10;47.20
40534;DHT22;26233;51.894;10.192;2023-10-09T04:59:45;17.10;47.40
40534;DHT22;26233;51.894;10.192;2023-10-09T05:02:16;17.10;47.30
40534;DHT22;26233;51.894;10.192;2023-10-09T05:04:47;17.20;47.40
40534;DHT22;26233;51.894;10.192;2023-10-09T05:07:26;17.20;47.40
40534;DHT22;26233;51.894;10.192;2023-10-09T05:10:20;17.20;47.40
40534;DHT22;26233;51.894;10.192;2023-10-09T05:12:50;17.20;47.40
40534;DHT22;26233;51.894;10.192;2023-10-09T05:15:22;17.20;47.40
40534;DHT22;26233;51.894;10.192;2023-10-09T05:17:55;17.20;47.40
40534;DHT22;26233;51.894;10.192;2023-10-09T05:20:24;17.30;47.50
40534;DHT22;26233;51.894;10.192;2023-10-09T05:23:08;17.30;47.50
40534;DHT22;26233;51.894;10.192;2023-10-09T05:25:49;17.20;47.50
40534;DHT22;26233;51.894;10.192;2023-10-09T05:28:24;17.20;47.50
40534;DHT22;26233;51.894;10.192;2023-10-09T05:30:51;17.20;47.50
40534;DHT22;26233;51.894;10.192;2023-10-09T05:33:32;17.20;47.50
40534;DHT22;26233;51.894;10.192;2023-10-09T05:36:02;17.20;47.50
40534;DHT22;26233;51.894;10.192;2023-10-09T05:38:43;17.30;47.70
40534;DHT22;26233;51.894;10.192;2023-10-09T05:41:13;17.30;47.60
40534;DHT22;26233;51.894;10.192;2023-10-09T05:44:13;17.20;47.60
40534;DHT22;26233;51.894;10.192;2023-10-09T05:47:09;17.20;47.50
40534;DHT22;26233;51.894;10.192;2023-10-09T05:50:00;17.20;47.60
40534;DHT22;26233;51.894;10.192;2023-10-09T05:52:46;17.20;47.70
40534;DHT22;26233;51.894;10.192;2023-10-09T05:55:31;17.20;47.60
40534;DHT22;26233;51.894;10.192;2023-10-09T05:58:16;17.20;47.70
40534;DHT22;26233;51.894;10.192;2023-10-09T06:01:00;17.20;47.70
40534;DHT22;26233;51.894;10.192;2023-10-09T06:03:45;17.20;47.70
40534;DHT22;26233;51.894;10.192;2023-10-09T06:06:15;17.30;47.90
40534;DHT22;26233;51.894;10.192;2023-10-09T06:09:00;17.20;47.90
40534;DHT22;26233;51.894;10.192;2023-10-09T06:11:47;17.20;47.90
40534;DHT22;26233;51.894;10.192;2023-10-09T06:14:21;17.20;48.00
40534;DHT22;26233;51.894;10.192;2023-10-09T06:16:52;17.20;48.00
40534;DHT22;26233;51.894;10.192;2023-10-09T06:19:48;17.20;48.10
40534;DHT22;26233;51.894;10.192;2023-10-09T06:22:15;17.10;48.00
40534;DHT22;26233;51.894;10.192;2023-10-09T06:25:03;17.10;48.10
40534;DHT22;26233;51.894;10.192;2023-10-09T06:27:36;17.10;48.20
40534;DHT22;26233;51.894;10.192;2023-10-09T06:30:21;17.10;48.30
40534;DHT22;26233;51.894;10.192;2023-10-09T06:32:53;17.10;48.40
40534;DHT22;26233;51.894;10.192;2023-10-09T06:35:45;17.10;48.50
40534;DHT22;26233;51.894;10.192;2023-10-09T06:38:19;17.10;48.50
40534;DHT22;26233;51.894;10.192;2023-10-09T06:40:49;17.10;48.60
40534;DHT22;26233;51.894;10.192;2023-10-09T06:43:48;17.10;48.70
40534;DHT22;26233;51.894;10.192;2023-10-09T06:46:18;17.10;48.70
40534;DHT22;26233;51.894;10.192;2023-10-09T06:49:09;17.10;48.80
40534;DHT22;26233;51.894;10.192;2023-10-09T06:51:55;17.10;49.00
40534;DHT22;26233;51.894;10.192;2023-10-09T06:54:39;17.20;49.20
40534;DHT22;26233;51.894;10.192;2023-10-09T06:57:17;17.20;49.20
40534;DHT22;26233;51.894;10.192;2023-10-09T07:00:06;17.20;49.70
40534;DHT22;26233;51.894;10.192;2023-10-09T07:02:56;17.20;49.00
40534;DHT22;26233;51.894;10.192;2023-10-09T07:05:23;17.20;49.00
40534;DHT22;26233;51.894;10.192;2023-10-09T07:08:03;17.30;49.10
40534;DHT22;26233;51.894;10.192;2023-10-09T07:10:56;17.30;49.20
40534;DHT22;26233;51.894;10.192;2023-10-09T07:13:44;17.30;49.40
40534;DHT22;26233;51.894;10.192;2023-10-09T07:16:20;17.30;49.90
40534;DHT22;26233;51.894;10.192;2023-10-09T07:18:55;17.30;49.30
40534;DHT22;26233;51.894;10.192;2023-10-09T07:21:35;17.40;49.50
40534;DHT22;26233;51.894;10.192;2023-10-09T07:24:09;17.40;49.50
40534;DHT22;26233;51.894;10.192;2023-10-09T07:26:42;17.40;49.50
40534;DHT22;26233;51.894;10.192;2023-10-09T07:29:19;17.40;49.50
40534;DHT22;26233;51.894;10.192;2023-10-09T07:31:49;17.40;49.60
40534;DHT22;26233;51.894;10.192;2023-10-09T07:34:24;17.50;49.60
40534;DHT22;26233;51.894;10.192;2023-10-09T07:36:58;17.40;49.50
40534;DHT22;26233;51.894;10.192;2023-10-09T07:39:32;17.50;49.60
40534;DHT22;26233;51.894;10.192;2023-10-09T07:42:05;17.50;49.70
40534;DHT22;26233;51.894;10.192;2023-10-09T07:44:56;17.50;49.90
40534;DHT22;26233;51.894;10.192;2023-10-09T07:47:37;17.40;49.80
40534;DHT22;26233;51.894;10.192;2023-10-09T07:50:26;17.40;49.80
40534;DHT22;26233;51.894;10.192;2023-10-09T07:53:04;17.50;49.90
40534;DHT22;26233;51.894;10.192;2023-10-09T07:55:43;17.50;49.90
40534;DHT22;26233;51.894;10.192;2023-10-09T07:58:20;17.50;50.00
40534;DHT22;26233;51.894;10.192;2023-10-09T08:00:52;17.50;50.00
40534;DHT22;26233;51.894;10.192;2023-10-09T08:03:42;17.50;50.10
40534;DHT22;26233;51.894;10.192;2023-10-09T08:06:11;17.50;50.00
40534;DHT22;26233;51.894;10.192;2023-10-09T08:08:56;17.50;50.10
40534;DHT22;26233;51.894;10.192;2023-10-09T08:11:41;17.50;50.10
40534;DHT22;26233;51.894;10.192;2023-10-09T08:14:33;17.50;50.10
40534;DHT22;26233;51.894;10.192;2023-10-09T08:17:15;17.50;50.20
40534;DHT22;26233;51.894;10.192;2023-10-09T08:19:45;17.50;50.10
40534;DHT22;26233;51.894;10.192;2023-10-09T08:22:23;17.40;50.20
40534;DHT22;26233;51.894;10.192;2023-10-09T08:25:09;17.40;50.30
40534;DHT22;26233;51.894;10.192;2023-10-09T08:27:59;17.40;50.30
40534;DHT22;26233;51.894;10.192;2023-10-09T08:30:40;17.40;50.40
40534;DHT22;26233;51.894;10.192;2023-10-09T08:33:15;17.40;50.40
40534;DHT22;26233;51.894;10.192;2023-10-09T08:36:00;17.40;50.50
40534;DHT22;26233;51.894;10.192;2023-10-09T08:38:31;17.40;50.50
40534;DHT22;26233;51.894;10.192;2023-10-09T08:41:12;17.40;50.60
40534;DHT22;26233;51.894;10.192;2023-10-09T08:43:49;17.40;51.00
40534;DHT22;26233;51.894;10.192;2023-10-09T08:46:19;17.40;50.60
40534;DHT22;26233;51.894;10.192;2023-10-09T08:48:49;17.40;50.80
40534;DHT22;26233;51.894;10.192;2023-10-09T08:51:19;17.40;50.80
40534;DHT22;26233;51.894;10.192;2023-10-09T08:53:47;17.40;50.90
40534;DHT22;26233;51.894;10.192;2023-10-09T08:56:16;17.40;51.00
40534;DHT22;26233;51.894;10.192;2023-10-09T08:58:51;17.40;51.00
40534;DHT22;26233;51.894;10.192;2023-10-09T09:01:20;17.40;51.00
40534;DHT22;26233;51.894;10.192;2023-10-09T09:03:52;17.40;51.10
40534;DHT22;26233;51.894;10.192;2023-10-09T09:06:21;17.40;51.20
40534;DHT22;26233;51.894;10.192;2023-10-09T09:08:49;17.40;51.10
40534;DHT22;26233;51.894;10.192;2023-10-09T09:11:20;17.40;51.10
40534;DHT22;26233;51.894;10.192;2023-10-09T09:14:00;17.40;51.20
40534;DHT22;26233;51.894;10.192;2023-10-09T09:16:31;17.40;51.60
40534;DHT22;26233;51.894;10.192;2023-10-09T09:19:04;17.50;51.40
40534;DHT22;26233;51.894;10.192;2023-10-09T09:21:48;17.50;51.40
40534;DHT22;26233;51.894;10.192;2023-10-09T09:24:20;17.60;51.60
40534;DHT22;26233;51.894;10.192;2023-10-09T09:27:04;17.50;51.40
40534;DHT22;26233;51.894;10.192;2023-10-09T09:29:43;17.50;51.40
40534;DHT22;26233;51.894;10.192;2023-10-09T09:32:26;17.60;51.50
40534;DHT22;26233;51.894;10.192;2023-10-09T09:35:02;17.60;51.80
40534;DHT22;26233;51.894;10.192;2023-10-09T09:37:32;17.60;51.60
40534;DHT22;26233;51.894;10.192;2023-10-09T09:40:16;17.70;51.70
40534;DHT22;26233;51.894;10.192;2023-10-09T09:42:57;17.70;51.70
40534;DHT22;26233;51.894;10.192;2023-10-09T09:45:32;17.70;51.70
40534;DHT22;26233;51.894;10.192;2023-10-09T09:48:02;17.70;51.70
40534;DHT22;26233;51.894;10.192;2023-10-09T09:50:33;17.80;51.80
40534;DHT22;26233;51.894;10.192;2023-10-09T09:53:04;17.80;52.00
40534;DHT22;26233;51.894;10.192;2023-10-09T09:55:34;17.80;51.90
40534;DHT22;26233;51.894;10.192;2023-10-09T09:58:09;17.90;52.60
40534;DHT22;26233;51.894;10.192;2023-10-09T10:00:45;17.90;51.90
40534;DHT22;26233;51.894;10.192;2023-10-09T10:03:20;17.90;51.80
40534;DHT22;26233;51.894;10.192;2023-10-09T10:05:51;17.90;51.80
40534;DHT22;26233;51.894;10.192;2023-10-09T10:08:21;17.90;51.80
40534;DHT22;26233;51.894;10.192;2023-10-09T10:10:56;18.00;52.00
40534;DHT22;26233;51.894;10.192;2023-10-09T10:13:55;18.00;52.00
40534;DHT22;26233;51.894;10.192;2023-10-09T10:16:28;17.90;52.00
40534;DHT22;26233;51.894;10.192;2023-10-09T10:19:01;18.00;51.80
40534;DHT22;26233;51.894;10.192;2023-10-09T10:21:49;18.00;51.90
40534;DHT22;26233;51.894;10.192;2023-10-09T10:24:41;18.00;52.00
40534;DHT22;26233;51.894;10.192;2023-10-09T10:27:21;18.00;52.40
40534;DHT22;26233;51.894;10.192;2023-10-09T10:30:28;18.10;52.10
40534;DHT22;26233;51.894;10.192;2023-10-09T10:33:09;18.00;52.30
40534;DHT22;26233;51.894;10.192;2023-10-09T10:35:38;18.00;51.90
40534;DHT22;26233;51.894;10.192;2023-10-09T10:38:27;18.00;51.80
40534;DHT22;26233;51.894;10.192;2023-10-09T10:41:12;18.00;52.10
40534;DHT22;26233;51.894;10.192;2023-10-09T10:43:43;18.00;52.00
40534;DHT22;26233;51.894;10.192;2023-10-09T10:46:46;18.10;52.10
40534;DHT22;26233;51.894;10.192;2023-10-09T10:49:18;18.10;52.20
40534;DHT22;26233;51.894;10.192;2023-10-09T10:51:49;18.10;52.20
40534;DHT22;26233;51.894;10.192;2023-10-09T10:54:28;18.20;52.40
40534;DHT22;26233;51.894;10.192;2023-10-09T10:57:16;18.20;52.40
40534;DHT22;26233;51.894;10.192;2023-10-09T10:59:54;18.30;52.70
40534;DHT22;26233;51.894;10.192;2023-10-09T11:02:42;18.30;52.50
40534;DHT22;26233;51.894;10.192;2023-10-09T11:05:09;18.30;52.50
40534;DHT22;26233;51.894;10.192;2023-10-09T11:07:50;18.40;52.60
40534;DHT22;26233;51.894;10.192;2023-10-09T11:10:23;18.40;52.50
40534;DHT22;26233;51.894;10.192;2023-10-09T11:12:57;18.40;52.50
40534;DHT22;26233;51.894;10.192;2023-10-09T11:15:53;18.40;53.10
40534;DHT22;26233;51.894;10.192;2023-10-09T11:18:40;18.50;53.20
40534;DHT22;26233;51.894;10.192;2023-10-09T11:21:14;18.50;52.70
40534;DHT22;26233;51.894;10.192;2023-10-09T11:24:02;18.50;52.70
40534;DHT22;26233;51.894;10.192;2023-10-09T11:26:45;18.50;52.70
40534;DHT22;26233;51.894;10.192;2023-10-09T11:29:19;18.50;52.60
40534;DHT22;26233;51.894;10.192;2023-10-09T11:31:59;18.60;52.70
40534;DHT22;26233;51.894;10.192;2023-10-09T11:34:27;18.60;52.80
40534;DHT22;26233;51.894;10.192;2023-10-09T11:36:58;18.60;52.70
40534;DHT22;26233;51.894;10.192;2023-10-09T11:39:29;18.60;52.70
40534;DHT22;26233;51.894;10.192;2023-10-09T11:42:03;18.60;52.70
40534;DHT22;26233;51.894;10.192;2023-10-09T11:44:38;18.60;52.70
40534;DHT22;26233;51.894;10.192;2023-10-09T11:47:05;18.60;52.80
40534;DHT22;26233;51.894;10.192;2023-10-09T11:49:58;18.60;52.80
40534;DHT22;26233;51.894;10.192;2023-10-09T11:52:56;18.60;52.80
40534;DHT22;26233;51.894;10.192;2023-10-09T11:55:44;18.60;53.30
40534;DHT22;26233;51.894;10.192;2023-10-09T11:58:16;18.50;52.80
40534;DHT22;26233;51.894;10.192;2023-10-09T12:00:49;18.60;53.00
40534;DHT22;26233;51.894;10.192;2023-10-09T12:03:23;18.50;52.90
40534;DHT22;26233;51.894;10.192;2023-10-09T12:05:54;18.50;53.00
40534;DHT22;26233;51.894;10.192;2023-10-09T12:08:23;18.50;53.00
40534;DHT22;26233;51.894;10.192;2023-10-09T12:10:54;18.50;53.10
40534;DHT22;26233;51.894;10.192;2023-10-09T12:13:25;18.50;53.10
40534;DHT22;26233;51.894;10.192;2023-10-09T12:15:53;18.60;53.20
40534;DHT22;26233;51.894;10.192;2023-10-09T12:18:21;18.60;53.30
40534;DHT22;26233;51.894;10.192;2023-10-09T12:20:50;18.60;53.30
40534;DHT22;26233;51.894;10.192;2023-10-09T12:23:18;18.60;53.40
40534;DHT22;26233;51.894;10.192;2023-10-09T12:25:47;18.60;53.40
40534;DHT22;26233;51.894;10.192;2023-10-09T12:28:15;18.60;53.40
40534;DHT22;26233;51.894;10.192;2023-10-09T12:30:47;18.60;53.40
40534;DHT22;26233;51.894;10.192;2023-10-09T12:33:16;18.60;53.50
40534;DHT22;26233;51.894;10.192;2023-10-09T12:35:45;18.60;53.50
40534;DHT22;26233;51.894;10.192;2023-10-09T12:38:13;18.60;53.50
40534;DHT22;26233;51.894;10.192;2023-10-09T12:40:44;18.60;53.50
40534;DHT22;26233;51.894;10.192;2023-10-09T12:43:16;18.60;53.60
40534;DHT22;26233;51.894;10.192;2023-10-09T12:45:46;18.60;53.60
40534;DHT22;26233;51.894;10.192;2023-10-09T12:48:13;18.70;53.70
40534;DHT22;26233;51.894;10.192;2023-10-09T12:50:41;18.60;53.70
40534;DHT22;26233;51.894;10.192;2023-10-09T12:53:10;18.60;53.60
40534;DHT22;26233;51.894;10.192;2023-10-09T12:55:43;18.60;53.70
40534;DHT22;26233;51.894;10.192;2023-10-09T12:58:11;18.60;53.70
40534;DHT22;26233;51.894;10.192;2023-10-09T13:00:42;18.70;53.70
40534;DHT22;26233;51.894;10.192;2023-10-09T13:03:17;18.60;53.70
40534;DHT22;26233;51.894;10.192;2023-10-09T13:05:45;18.60;53.80
40534;DHT22;26233;51.894;10.192;2023-10-09T13:08:23;18.60;53.80
40534;DHT22;26233;51.894;10.192;2023-10-09T13:11:01;18.60;53.90
40534;DHT22;26233;51.894;10.192;2023-10-09T13:13:36;18.70;53.90
40534;DHT22;26233;51.894;10.192;2023-10-09T13:16:08;18.70;53.90
40534;DHT22;26233;51.894;10.192;2023-10-09T13:18:39;18.60;53.90
40534;DHT22;26233;51.894;10.192;2023-10-09T13:21:07;18.60;53.90
40534;DHT22;26233;51.894;10.192;2023-10-09T13:23:34;18.70;54.00
40534;DHT22;26233;51.894;10.192;2023-10-09T13:26:06;18.70;54.10
40534;DHT22;26233;51.894;10.192;2023-10-09T13:28:46;18.70;54.10
40534;DHT22;26233;51.894;10.192;2023-10-09T13:31:14;18.60;54.10
40534;DHT22;26233;51.894;10.192;2023-10-09T13:33:44;18.60;54.00
40534;DHT22;26233;51.894;10.192;2023-10-09T13:36:12;18.60;54.00
40534;DHT22;26233;51.894;10.192;2023-10-09T13:38:45;18.60;54.00
40534;DHT22;26233;51.894;10.192;2023-10-09T13:41:12;18.60;54.10
40534;DHT22;26233;51.894;10.192;2023-10-09T13:43:40;18.60;54.10
40534;DHT22;26233;51.894;10.192;2023-10-09T13:46:09;18.60;54.20
40534;DHT22;26233;51.894;10.192;2023-10-09T13:48:39;18.60;54.20
40534;DHT22;26233;51.894;10.192;2023-10-09T13:51:10;18.60;54.20
40534;DHT22;26233;51.894;10.192;2023-10-09T13:53:43;18.60;54.30
40534;DHT22;26233;51.894;10.192;2023-10-09T13:56:16;18.60;54.30
40534;DHT22;26233;51.894;10.192;2023-10-09T13:58:46;18.70;54.40
40534;DHT22;26233;51.894;10.192;2023-10-09T14:01:13;18.70;54.40
40534;DHT22;26233;51.894;10.192;2023-10-09T14:03:55;18.60;54.40
40534;DHT22;26233;51.894;10.192;2023-10-09T14:06:24;18.70;54.50
40534;DHT22;26233;51.894;10.192;2023-10-09T14:08:58;18.70;54.50
40534;DHT22;26233;51.894;10.192;2023-10-09T14:11:25;18.70;54.50
40534;DHT22;26233;51.894;10.192;2023-10-09T14:13:53;18.70;54.60
40534;DHT22;26233;51.894;10.192;2023-10-09T14:16:20;18.70;55.20
40534;DHT22;26233;51.894;10.192;2023-10-09T14:18:53;18.70;54.60
40534;DHT22;26233;51.894;10.192;2023-10-09T14:21:25;18.70;54.60
40534;DHT22;26233;51.894;10.192;2023-10-09T14:23:56;18.70;54.70
40534;DHT22;26233;51.894;10.192;2023-10-09T14:26:24;18.70;54.70
40534;DHT22;26233;51.894;10.192;2023-10-09T14:28:52;18.70;54.70
40534;DHT22;26233;51.894;10.192;2023-10-09T14:31:22;18.80;54.80
40534;DHT22;26233;51.894;10.192;2023-10-09T14:33:54;18.80;54.80
40534;DHT22;26233;51.894;10.192;2023-10-09T14:36:21;18.80;54.80
40534;DHT22;26233;51.894;10.192;2023-10-09T14:38:51;18.80;54.80
40534;DHT22;26233;51.894;10.192;2023-10-09T14:41:20;18.80;54.90
40534;DHT22;26233;51.894;10.192;2023-10-09T14:43:50;18.80;54.90
40534;DHT22;26233;51.894;10.192;2023-10-09T14:46:18;18.80;54.90
40534;DHT22;26233;51.894;10.192;2023-10-09T14:48:51;18.80;55.00
40534;DHT22;26233;51.894;10.192;2023-10-09T14:51:20;18.90;55.00
40534;DHT22;26233;51.894;10.192;2023-10-09T14:53:56;18.90;55.00
40534;DHT22;26233;51.894;10.192;2023-10-09T14:56:28;18.90;55.10
40534;DHT22;26233;51.894;10.192;2023-10-09T14:58:56;18.90;55.10
40534;DHT22;26233;51.894;10.192;2023-10-09T15:01:25;18.90;55.00
40534;DHT22;26233;51.894;10.192;2023-10-09T15:03:58;18.90;55.10
40534;DHT22;26233;51.894;10.192;2023-10-09T15:06:26;18.90;55.20
40534;DHT22;26233;51.894;10.192;2023-10-09T15:08:57;18.90;55.10
40534;DHT22;26233;51.894;10.192;2023-10-09T15:11:26;18.90;55.20
40534;DHT22;26233;51.894;10.192;2023-10-09T15:13:54;18.90;55.20
40534;DHT22;26233;51.894;10.192;2023-10-09T15:16:23;18.90;55.20
40534;DHT22;26233;51.894;10.192;2023-10-09T15:18:53;18.90;55.20
40534;DHT22;26233;51.894;10.192;2023-10-09T15:21:23;18.90;55.20
40534;DHT22;26233;51.894;10.192;2023-10-09T15:23:52;18.90;55.20
40534;DHT22;26233;51.894;10.192;2023-10-09T15:26:23;19.00;55.20
40534;DHT22;26233;51.894;10.192;2023-10-09T15:28:51;18.90;55.20
40534;DHT22;26233;51.894;10.192;2023-10-09T15:31:18;19.00;55.30
40534;DHT22;26233;51.894;10.192;2023-10-09T15:33:47;19.00;55.30
40534;DHT22;26233;51.894;10.192;2023-10-09T15:36:17;18.90;55.20
40534;DHT22;26233;51.894;10.192;2023-10-09T15:38:46;18.90;55.20
40534;DHT22;26233;51.894;10.192;2023-10-09T15:41:13;18.90;55.30
40534;DHT22;26233;51.894;10.192;2023-10-09T15:43:48;18.90;55.40
40534;DHT22;26233;51.894;10.192;2023-10-09T15:46:17;18.90;55.40
40534;DHT22;26233;51.894;10.192;2023-10-09T15:48:44;18.90;55.50
40534;DHT22;26233;51.894;10.192;2023-10-09T15:51:12;18.90;55.50
40534;DHT22;26233;51.894;10.192;2023-10-09T15:53:41;18.90;55.50
40534;DHT22;26233;51.894;10.192;2023-10-09T15:56:09;18.90;55.60
40534;DHT22;26233;51.894;10.192;2023-10-09T15:58:38;18.90;55.60
40534;DHT22;26233;51.894;10.192;2023-10-09T16:01:10;18.90;55.60